East Glacier, Montana
Current Conditions -  °F | °C
As of 1:02 AM on Friday 31 Oct 2014 (Local Time) from KGPI Reporting Station
Moderate Fog Moderate Fog  
Wind Chill: 36°   Ceiling: 100
Heat Index: 36°   Visibility: 0.5mi
Dew Point: 35°   Wind: 3mph
Humidity: 97%   Direction: 130°SE
Pressure: 29.94"   Gusts: NA
Location:  48.7064°N, 113.591°W
Report Text: KGPI 310702Z AUTO 13003KT 1/2SM FG VV001 02/02 A2994 RMK AO2 T00220017
Loading
Personal Weather Stations






























Interactive Weather Map
Tropical Storm Tracking
New forecast layout! Learn more

10-Day Weather Forecast

Advertisements
Track Severe Weather on mobile